createdAt,value
2017-12-25T00:00:42.304Z,85.05
2017-12-25T00:01:52.099Z,84.72
2017-12-25T00:03:01.874Z,84.72
2017-12-25T00:04:11.967Z,84.81
2017-12-25T00:05:21.777Z,84.91
2017-12-25T00:06:31.826Z,84.81
2017-12-25T00:07:41.608Z,84.86
2017-12-25T00:08:51.675Z,84.77
2017-12-25T00:10:01.256Z,84.72
2017-12-25T00:11:11.361Z,84.81
2017-12-25T00:12:21.429Z,84.91
2017-12-25T00:13:31.471Z,84.91
2017-12-25T00:14:41.268Z,84.91
2017-12-25T00:15:51.315Z,84.91
2017-12-25T00:17:01.361Z,84.91
2017-12-25T00:18:11.164Z,84.72
2017-12-25T00:19:20.950Z,84.62
2017-12-25T00:20:30.983Z,84.81
2017-12-25T00:21:41.099Z,84.52
2017-12-25T00:22:50.913Z,85.05
2017-12-25T00:24:00.977Z,85.1
2017-12-25T00:25:11.029Z,84.91
2017-12-25T00:26:21.083Z,84.95
2017-12-25T00:27:31.156Z,85
2017-12-25T00:28:41.199Z,84.91
2017-12-25T00:29:51.243Z,85.05
2017-12-25T00:31:01.294Z,84.77
2017-12-25T00:32:11.351Z,84.95
2017-12-25T00:33:21.188Z,84.86
2017-12-25T00:34:31.233Z,84.86
2017-12-25T00:35:41.271Z,85.05
2017-12-25T00:36:51.079Z,84.77
2017-12-25T00:38:01.153Z,84.86
2017-12-25T00:39:11.208Z,85.05
2017-12-25T00:40:21.006Z,84.67
2017-12-25T00:41:31.052Z,84.86
2017-12-25T00:42:40.579Z,84.86
2017-12-25T00:43:50.361Z,84.67
2017-12-25T00:45:00.411Z,84.77
2017-12-25T00:46:10.474Z,84.95
2017-12-25T00:47:20.278Z,85.05
2017-12-25T00:48:30.316Z,84.95
2017-12-25T00:49:40.101Z,84.95
2017-12-25T00:50:50.141Z,84.86
2017-12-25T00:51:59.665Z,84.86
2017-12-25T00:53:09.729Z,84.95
2017-12-25T00:54:19.764Z,84.86
2017-12-25T00:55:29.816Z,84.77
2017-12-25T00:56:39.880Z,85.15
2017-12-25T00:57:49.945Z,85.05
2017-12-25T00:58:59.994Z,84.95
2017-12-25T01:00:10.051Z,84.95
2017-12-25T01:01:19.848Z,84.95
2017-12-25T01:02:29.375Z,84.95
2017-12-25T01:03:39.427Z,84.95
2017-12-25T01:04:49.503Z,84.95
2017-12-25T01:05:59.546Z,84.95
2017-12-25T01:07:09.591Z,85.05
2017-12-25T01:08:19.377Z,85.05
2017-12-25T01:09:29.418Z,84.95
2017-12-25T01:10:39.469Z,85.15
2017-12-25T01:11:49.523Z,85.05
2017-12-25T01:12:59.570Z,84.77
2017-12-25T01:14:09.618Z,84.95
2017-12-25T01:15:19.718Z,84.86
2017-12-25T01:16:29.767Z,84.86
2017-12-25T01:17:39.575Z,84.77
2017-12-25T01:18:49.643Z,84.67
2017-12-25T01:19:59.768Z,84.77
2017-12-25T01:21:09.847Z,84.86
2017-12-25T01:22:19.652Z,84.86
2017-12-25T01:23:29.705Z,84.77
2017-12-25T01:24:39.219Z,84.67
2017-12-25T01:25:49.007Z,84.58
2017-12-25T01:26:59.063Z,84.77
2017-12-25T01:28:09.111Z,84.67
2017-12-25T01:29:19.175Z,85.05
2017-12-25T01:30:28.978Z,85.05
2017-12-25T01:31:39.034Z,84.77
2017-12-25T01:32:49.091Z,84.67
2017-12-25T01:33:58.884Z,84.77
2017-12-25T01:35:08.956Z,85.05
2017-12-25T01:36:18.748Z,84.86
2017-12-25T01:37:28.545Z,84.86
2017-12-25T01:38:38.587Z,84.77
2017-12-25T01:39:48.381Z,84.86
2017-12-25T01:40:57.932Z,84.67
2017-12-25T01:42:07.717Z,84.77
2017-12-25T01:43:17.553Z,84.77
2017-12-25T01:44:27.339Z,84.95
2017-12-25T01:45:37.377Z,84.95
2017-12-25T01:46:47.419Z,84.95
2017-12-25T01:47:57.472Z,85.05
2017-12-25T01:49:07.256Z,84.95
2017-12-25T01:50:17.305Z,85.15
2017-12-25T01:51:27.355Z,85.05
2017-12-25T01:52:37.418Z,85.05
2017-12-25T01:53:47.698Z,85.15
2017-12-25T01:54:57.500Z,84.95
2017-12-25T01:56:08.243Z,84.86
2017-12-25T01:57:18.298Z,84.95
2017-12-25T01:58:28.355Z,84.95
2017-12-25T01:59:38.391Z,85.05
2017-12-25T02:00:48.205Z,85.05
2017-12-25T02:01:57.992Z,85.15
2017-12-25T02:03:08.048Z,85.05
2017-12-25T02:04:18.100Z,85.05
2017-12-25T02:05:28.133Z,85.15
2017-12-25T02:06:37.915Z,84.95
2017-12-25T02:07:47.724Z,85.05
2017-12-25T02:08:57.761Z,84.63
2017-12-25T02:10:07.816Z,84.82
2017-12-25T02:11:17.862Z,85.05
2017-12-25T02:12:27.915Z,84.72
2017-12-25T02:13:37.970Z,84.63
2017-12-25T02:14:47.518Z,84.63
2017-12-25T02:15:57.575Z,84.67
2017-12-25T02:17:07.356Z,85.05
2017-12-25T02:18:17.418Z,85.11
2017-12-25T02:19:27.203Z,84.91
2017-12-25T02:20:37.240Z,84.82
2017-12-25T02:21:47.025Z,84.86
2017-12-25T02:22:57.078Z,84.82
2017-12-25T02:24:06.917Z,84.72
2017-12-25T02:25:16.709Z,84.77
2017-12-25T02:26:26.772Z,84.63
2017-12-25T02:27:36.320Z,85.05
2017-12-25T02:28:46.094Z,84.67
2017-12-25T02:29:56.155Z,84.82
2017-12-25T02:31:06.210Z,84.82
2017-12-25T02:32:16.055Z,84.63
2017-12-25T02:33:26.084Z,84.82
2017-12-25T02:34:36.129Z,85.01
2017-12-25T02:35:45.951Z,84.82
2017-12-25T02:36:55.757Z,84.63
2017-12-25T02:38:05.908Z,84.53
2017-12-25T02:39:15.968Z,84.53
2017-12-25T02:40:26.074Z,84.53
2017-12-25T02:41:36.130Z,84.63
2017-12-25T02:42:46.190Z,84.34
2017-12-25T02:43:56.240Z,84.63
2017-12-25T02:45:06.050Z,84.53
2017-12-25T02:46:15.839Z,84.44
2017-12-25T02:47:25.952Z,83.97
2017-12-25T02:48:36.345Z,84.25
2017-12-25T02:49:46.432Z,84.06
2017-12-25T02:50:56.503Z,84.25
2017-12-25T02:52:06.301Z,84.06
2017-12-25T02:53:16.371Z,84.25
2017-12-25T02:54:26.423Z,84.16
2017-12-25T02:55:36.585Z,84.06
2017-12-25T02:56:46.639Z,84.16
2017-12-25T02:57:56.166Z,84.34
2017-12-25T02:59:06.240Z,84.25
2017-12-25T03:00:16.293Z,84.16
2017-12-25T03:01:26.079Z,84.06
2017-12-25T03:02:36.130Z,84.16
2017-12-25T03:34:15.420Z,81.1
2017-12-25T03:35:25.474Z,82.05
2017-12-25T03:36:35.504Z,82.52
2017-12-25T03:37:45.541Z,82.81
2017-12-25T03:38:55.586Z,83.66
2017-12-25T03:40:05.622Z,83.94
2017-12-25T03:41:15.670Z,84.51
2017-12-25T03:42:25.214Z,84.84
2017-12-25T03:43:35.308Z,84.65
2017-12-25T03:44:45.355Z,85.41
2017-12-25T03:45:55.392Z,85.5
2017-12-25T03:47:05.440Z,85.6
2017-12-25T03:48:15.233Z,85.22
2017-12-25T03:49:25.277Z,85.41
2017-12-25T03:50:35.095Z,84.78
2017-12-25T03:51:45.136Z,85.36
2017-12-25T03:52:54.946Z,84.69
2017-12-25T03:54:05.003Z,84.69
2017-12-25T03:55:14.789Z,84.5
2017-12-25T03:56:24.586Z,84.69
2017-12-25T03:57:34.378Z,84.98
2017-12-25T03:58:44.430Z,84.92
2017-12-25T03:59:54.480Z,84.83
2017-12-25T04:01:04.268Z,85.21
2017-12-25T04:02:14.310Z,85.02
2017-12-25T04:03:24.358Z,84.64
2017-12-25T04:04:34.393Z,84.74
2017-12-25T04:05:44.172Z,84.45
2017-12-25T04:06:53.983Z,84.55
2017-12-25T04:08:04.061Z,84.45
2017-12-25T04:09:13.860Z,84.55
2017-12-25T04:10:23.921Z,84.26
2017-12-25T04:11:33.975Z,84.45
2017-12-25T04:12:44.024Z,84.17
2017-12-25T04:13:54.081Z,83.88
2017-12-25T04:15:04.180Z,84.17
2017-12-25T04:16:14.230Z,84.21
2017-12-25T04:17:23.501Z,83.97
2017-12-25T04:18:33.302Z,84.21
2017-12-25T04:19:43.345Z,84.11
2017-12-25T04:20:53.449Z,84.21
2017-12-25T04:22:03.490Z,84.17
2017-12-25T04:23:13.541Z,83.97
2017-12-25T04:24:23.597Z,84.21
2017-12-25T04:25:33.631Z,84.07
2017-12-25T04:26:43.679Z,84.01
2017-12-25T04:27:53.465Z,84.11
2017-12-25T04:29:03.252Z,84.17
2017-12-25T04:30:13.056Z,84.07
2017-12-25T04:31:23.104Z,84.17
2017-12-25T04:32:32.905Z,84.07
2017-12-25T04:33:42.948Z,84.17
2017-12-25T04:34:53.004Z,84.07
2017-12-25T04:36:03.056Z,84.07
2017-12-25T04:37:12.599Z,84.26
2017-12-25T04:38:22.636Z,84.26
2017-12-25T04:39:32.692Z,84.07
2017-12-25T04:40:42.729Z,84.07
2017-12-25T04:41:52.520Z,84.17
2017-12-25T04:43:02.578Z,84.07
2017-12-25T04:44:12.628Z,84.17
2017-12-25T04:45:22.740Z,84.17
2017-12-25T04:46:32.784Z,84.07
2017-12-25T04:47:42.818Z,84.17
2017-12-25T04:48:52.652Z,84.21
2017-12-25T04:50:02.710Z,83.88
2017-12-25T04:51:12.497Z,84.07
2017-12-25T04:52:22.295Z,83.88
2017-12-25T04:53:32.358Z,84.17
2017-12-25T04:54:42.410Z,83.97
2017-12-25T04:55:52.470Z,84.07
2017-12-25T04:57:02.528Z,84.11
2017-12-25T04:58:12.325Z,84.21
2017-12-25T04:59:22.117Z,84.01
2017-12-25T05:00:32.155Z,83.97
2017-12-25T05:01:42.214Z,84.17
2017-12-25T05:02:52.278Z,84.17
2017-12-25T05:04:02.073Z,84.07
2017-12-25T05:05:11.867Z,84.07
2017-12-25T05:06:21.932Z,84.17
2017-12-25T05:07:31.473Z,83.97
2017-12-25T05:08:41.528Z,83.97
2017-12-25T05:09:51.588Z,84.17
2017-12-25T05:11:01.631Z,84.17
2017-12-25T05:12:11.694Z,84.36
2017-12-25T05:13:21.488Z,84.17
2017-12-25T05:14:31.537Z,84.36
2017-12-25T05:15:41.592Z,84.36
2017-12-25T05:16:51.415Z,84.17
2017-12-25T05:18:01.472Z,84.17
2017-12-25T05:19:11.531Z,83.97
2017-12-25T05:20:21.319Z,83.97
2017-12-25T05:21:31.371Z,83.78
2017-12-25T05:22:41.170Z,83.5
2017-12-25T05:23:51.215Z,83.5
2017-12-25T05:25:01.326Z,83.5
2017-12-25T05:26:11.390Z,83.59
2017-12-25T05:27:21.438Z,83.5
2017-12-25T05:28:31.474Z,83.4
2017-12-25T05:29:41.536Z,83.31
2017-12-25T05:30:51.055Z,83.22
2017-12-25T05:32:00.851Z,83.59
2017-12-25T05:33:10.637Z,83.59
2017-12-25T05:34:20.896Z,83.78
2017-12-25T05:35:30.684Z,84.07
2017-12-25T05:36:40.458Z,84.17
2017-12-25T05:37:50.515Z,84.36
2017-12-25T05:39:00.584Z,84.07
2017-12-25T05:40:10.374Z,84.26
2017-12-25T05:41:20.201Z,83.88
2017-12-25T05:42:30.276Z,84.07
2017-12-25T05:43:40.320Z,84.07
2017-12-25T05:44:50.372Z,84.17
2017-12-25T05:46:00.418Z,84.07
2017-12-25T05:47:10.213Z,84.26
2017-12-25T05:48:20.321Z,84.07
2017-12-25T05:49:30.394Z,83.97
2017-12-25T05:50:40.188Z,83.88
2017-12-25T05:51:50.241Z,83.97
2017-12-25T05:53:00.358Z,84.17
2017-12-25T05:54:10.196Z,83.97
2017-12-25T05:55:20.247Z,84.07
2017-12-25T05:56:30.288Z,84.17
2017-12-25T05:57:40.342Z,84.17
2017-12-25T05:58:50.402Z,83.97
2017-12-25T06:00:00.475Z,84.07
2017-12-25T06:01:10.269Z,84.07
2017-12-25T06:02:20.327Z,83.88
2017-12-25T06:03:30.388Z,84.07
2017-12-25T06:04:40.182Z,83.97
2017-12-25T06:05:50.218Z,84.07
2017-12-25T06:07:00.279Z,84.17
2017-12-25T06:08:10.332Z,84.07
2017-12-25T06:09:20.387Z,83.88
2017-12-25T06:10:30.184Z,84.17
2017-12-25T06:11:39.971Z,84.17
2017-12-25T06:12:50.015Z,83.97
2017-12-25T06:14:00.084Z,83.97
2017-12-25T06:15:09.607Z,84.07
2017-12-25T06:16:19.667Z,84.17
2017-12-25T06:17:29.775Z,84.07
2017-12-25T06:18:39.822Z,84.17
2017-12-25T06:19:49.867Z,84.26
2017-12-25T06:20:59.914Z,84.36
2017-12-25T06:22:09.986Z,84.07
2017-12-25T06:23:20.034Z,83.97
2017-12-25T06:24:29.836Z,84.07
2017-12-25T06:25:39.883Z,84.07
2017-12-25T06:26:49.668Z,84.17
2017-12-25T06:27:59.727Z,84.07
2017-12-25T06:29:09.514Z,84.07
2017-12-25T06:30:19.289Z,84.17
2017-12-25T06:31:29.326Z,84.36
2017-12-25T06:32:39.410Z,84.17
2017-12-25T06:33:49.187Z,84.07
2017-12-25T06:34:58.977Z,83.97
2017-12-25T06:36:08.515Z,83.78
2017-12-25T06:37:18.589Z,83.78
2017-12-25T06:38:28.658Z,83.59
2017-12-25T06:39:38.714Z,83.59
2017-12-25T06:40:48.774Z,83.59
2017-12-25T06:41:58.816Z,83.69
2017-12-25T06:43:08.853Z,83.4
2017-12-25T06:44:18.640Z,83.5
2017-12-25T06:45:28.690Z,83.4
2017-12-25T06:46:38.799Z,83.78
2017-12-25T06:47:48.912Z,83.59
2017-12-25T06:48:58.974Z,83.69
2017-12-25T06:50:09.019Z,83.78
2017-12-25T06:51:18.812Z,83.88
2017-12-25T06:52:28.870Z,83.69
2017-12-25T06:53:38.920Z,83.78
2017-12-25T06:54:48.975Z,84.07
2017-12-25T06:55:58.495Z,83.69
2017-12-25T06:57:08.558Z,83.88
2017-12-25T06:58:18.397Z,83.59
2017-12-25T06:59:28.498Z,83.97
2017-12-25T07:00:38.302Z,83.31
2017-12-25T07:01:48.340Z,83.22
2017-12-25T07:02:58.118Z,83.31
2017-12-25T07:04:07.649Z,83.22
2017-12-25T07:05:17.697Z,83.31
2017-12-25T07:06:27.485Z,83.4
2017-12-25T07:07:37.551Z,83.22
2017-12-25T07:08:47.338Z,83.22
2017-12-25T07:09:57.452Z,83.22
2017-12-25T07:11:07.231Z,83.4
2017-12-25T07:12:17.108Z,83.22
2017-12-25T07:13:26.903Z,83.31
2017-12-25T07:14:36.950Z,82.93
2017-12-25T07:15:46.996Z,82.84
2017-12-25T07:16:57.064Z,83.12
2017-12-25T07:18:07.267Z,83.16
2017-12-25T07:19:17.321Z,82.93
2017-12-25T07:20:27.116Z,82.93
2017-12-25T07:21:37.226Z,83.07
2017-12-25T07:22:47.269Z,83.16
2017-12-25T07:23:57.325Z,83.26
2017-12-25T07:25:07.443Z,83.16
2017-12-25T07:26:17.541Z,82.59
2017-12-25T07:27:27.591Z,82.88
2017-12-25T07:28:37.378Z,82.88
2017-12-25T07:29:47.435Z,82.88
2017-12-25T07:30:57.539Z,82.97
2017-12-25T07:32:07.594Z,82.31
2017-12-25T07:33:17.430Z,82.21
2017-12-25T07:34:27.484Z,83.11
2017-12-25T07:35:37.545Z,82.82
2017-12-25T07:36:47.612Z,82.82
2017-12-25T07:37:57.412Z,82.78
2017-12-25T07:39:07.189Z,82.92
2017-12-25T07:40:16.986Z,83.01
2017-12-25T07:41:27.047Z,82.92
2017-12-25T07:42:37.103Z,83.01
2017-12-25T07:43:46.907Z,83.11
2017-12-25T07:44:56.953Z,83.11
2017-12-25T07:46:07.008Z,83.11
2017-12-25T07:47:16.785Z,82.82
2017-12-25T07:48:26.326Z,83.01
2017-12-25T07:49:36.367Z,82.92
2017-12-25T07:50:46.443Z,82.92
2017-12-25T07:51:56.502Z,83.01
2017-12-25T07:53:06.553Z,82.64
2017-12-25T07:54:16.346Z,82.73
2017-12-25T07:55:26.396Z,83.01
2017-12-25T07:56:35.934Z,82.82
2017-12-25T07:57:45.979Z,82.92
2017-12-25T07:58:56.057Z,83.01
2017-12-25T08:00:06.112Z,83.01
2017-12-25T08:01:16.173Z,82.64
2017-12-25T08:02:25.957Z,83.01
2017-12-25T08:03:36.068Z,83.11
2017-12-25T08:04:45.858Z,82.26
2017-12-25T08:05:55.643Z,82.64
2017-12-25T08:07:05.439Z,82.35
2017-12-25T08:08:15.242Z,82.45
2017-12-25T08:09:25.092Z,82.64
2017-12-25T08:10:35.171Z,82.29
2017-12-25T08:11:45.227Z,82.29
2017-12-25T08:12:55.542Z,82.58
2017-12-25T08:14:05.355Z,82.68
2017-12-25T08:15:15.414Z,82.77
2017-12-25T08:16:25.463Z,82.58
2017-12-25T08:17:35.531Z,82.49
2017-12-25T08:18:45.568Z,82.1
2017-12-25T08:19:55.616Z,81.92
2017-12-25T08:21:05.658Z,82.01
2017-12-25T08:22:15.467Z,81.86
2017-12-25T08:23:25.280Z,82.05
2017-12-25T08:24:35.380Z,82.05
2017-12-25T08:25:45.443Z,81.96
2017-12-25T08:26:55.586Z,82.05
2017-12-25T08:28:05.405Z,81.86
2017-12-25T08:29:14.940Z,81.96
2017-12-25T08:30:24.740Z,82.43
2017-12-25T08:31:34.823Z,82.53
2017-12-25T08:32:44.683Z,82.43
2017-12-25T08:33:54.469Z,82.53
2017-12-25T08:35:04.557Z,82.48
2017-12-25T08:36:14.623Z,83.23
2017-12-25T08:37:24.433Z,82.48
2017-12-25T08:38:34.539Z,82.38
2017-12-25T08:39:44.584Z,82.67
2017-12-25T08:40:54.402Z,82.67
2017-12-25T08:42:04.488Z,82.38
2017-12-25T08:43:14.571Z,82.38
2017-12-25T08:44:24.707Z,82.48
2017-12-25T08:45:34.512Z,83.14
2017-12-25T08:46:44.579Z,83.23
2017-12-25T08:47:54.689Z,83.14
2017-12-25T08:49:04.750Z,82.48
2017-12-25T08:50:14.813Z,82.61
2017-12-25T08:51:24.621Z,82.51
2017-12-25T08:52:34.424Z,82.42
2017-12-25T08:53:44.494Z,82.32
2017-12-25T08:54:54.557Z,82.7
2017-12-25T08:56:04.619Z,82.51
2017-12-25T08:57:14.399Z,82.7
2017-12-25T08:58:24.471Z,82.42
2017-12-25T08:59:34.531Z,82.61
2017-12-25T09:00:44.595Z,82.46
2017-12-25T09:01:54.692Z,82.65
2017-12-25T09:03:04.745Z,82.46
2017-12-25T09:04:14.541Z,82.37
2017-12-25T09:05:24.330Z,82.84
2017-12-25T09:06:34.392Z,82.75
2017-12-25T09:07:44.173Z,82.75
2017-12-25T09:08:54.223Z,82.56
2017-12-25T09:10:04.275Z,82.75
2017-12-25T09:11:14.064Z,82.84
2017-12-25T09:12:24.129Z,82.89
2017-12-25T09:13:33.937Z,82.89
2017-12-25T09:14:43.992Z,82.98
2017-12-25T09:15:53.796Z,82.98
2017-12-25T09:17:03.860Z,82.6
2017-12-25T09:18:13.659Z,82.79
2017-12-25T09:19:23.721Z,82.79
2017-12-25T09:20:33.501Z,82.69
2017-12-25T09:21:43.324Z,82.69
2017-12-25T09:22:53.379Z,82.6
2017-12-25T09:24:03.181Z,82.5
2017-12-25T09:25:12.985Z,82.98
2017-12-25T09:26:22.794Z,82.92
2017-12-25T09:27:32.846Z,82.92
2017-12-25T09:28:42.934Z,82.45
2017-12-25T09:29:52.984Z,82.64
2017-12-25T09:31:02.786Z,82.17
2017-12-25T09:32:12.837Z,82.07
2017-12-25T09:33:22.891Z,82.17
2017-12-25T09:34:32.947Z,82.26
2017-12-25T09:35:43.096Z,82.17
2017-12-25T09:36:52.947Z,82.64
2017-12-25T09:38:03.018Z,82.64
2017-12-25T09:39:13.060Z,83.12
2017-12-25T09:40:22.854Z,82.35
2017-12-25T09:41:33.560Z,83.12
2017-12-25T09:42:43.638Z,82.73
2017-12-25T09:43:53.693Z,82.35
2017-12-25T09:45:03.779Z,82.68
2017-12-25T09:46:13.843Z,83.06
2017-12-25T09:47:23.904Z,83.06
2017-12-25T09:48:34.001Z,82.3
2017-12-25T09:49:44.078Z,82.68
2017-12-25T09:50:53.879Z,82.59
2017-12-25T09:52:03.943Z,82.59
2017-12-25T09:53:13.753Z,80.91
2017-12-25T09:54:23.809Z,79.31
2017-12-25T09:55:33.633Z,78.78
2017-12-25T09:56:43.741Z,78.72
2017-12-25T09:57:53.796Z,79.62
2017-12-25T09:59:03.883Z,80.82
2017-12-25T10:00:14.027Z,82.31
2017-12-25T10:01:24.088Z,82.28
2017-12-25T10:02:34.164Z,82.9
2017-12-25T10:03:44.252Z,83.67
2017-12-25T10:04:54.336Z,83.57
2017-12-25T10:06:04.132Z,83.86
2017-12-25T10:07:14.190Z,84.29
2017-12-25T10:08:24.266Z,83.81
2017-12-25T10:09:34.347Z,83.34
2017-12-25T10:10:44.416Z,83.34
2017-12-25T10:11:54.485Z,83.53
2017-12-25T10:13:04.303Z,83.43
2017-12-25T10:14:14.375Z,83.34
2017-12-25T10:15:24.172Z,83.43
2017-12-25T10:16:33.967Z,83.72
2017-12-25T10:17:43.821Z,83.34
2017-12-25T10:18:53.877Z,83.24
2017-12-25T10:20:03.942Z,83.43
2017-12-25T10:21:13.496Z,83.34
2017-12-25T10:22:23.559Z,83.14
2017-12-25T10:23:33.364Z,83.14
2017-12-25T10:24:43.418Z,83.34
2017-12-25T10:25:53.198Z,83.34
2017-12-25T10:27:03.043Z,83.43
2017-12-25T10:28:13.753Z,83.43
2017-12-25T10:29:23.608Z,83.43
2017-12-25T10:30:33.657Z,83.43
2017-12-25T10:31:43.710Z,83.24
2017-12-25T10:32:53.783Z,83.05
2017-12-25T10:34:03.881Z,83.62
2017-12-25T10:35:13.997Z,83.24
2017-12-25T10:36:24.074Z,83.43
2017-12-25T10:37:33.881Z,82.76
2017-12-25T10:38:43.688Z,82.86
2017-12-25T10:39:52.974Z,82.67
2017-12-25T10:41:03.045Z,82.86
2017-12-25T10:42:13.093Z,82.95
2017-12-25T10:43:23.161Z,83.14
2017-12-25T10:44:33.227Z,82.48
2017-12-25T10:45:43.288Z,82.81
2017-12-25T10:46:53.333Z,82.42
2017-12-25T10:48:03.417Z,82.23
2017-12-25T10:49:13.208Z,82.52
2017-12-25T10:50:23.013Z,82.42
2017-12-25T10:51:32.793Z,82.52
2017-12-25T10:52:42.861Z,82.52
2017-12-25T10:53:52.941Z,82.61
2017-12-25T10:55:02.739Z,82.71
2017-12-25T10:56:12.825Z,82.52
2017-12-25T10:57:22.629Z,83.18
2017-12-25T10:58:32.718Z,83.09
2017-12-25T10:59:42.799Z,82.71
2017-12-25T11:00:52.596Z,83.09
2017-12-25T11:02:02.661Z,82.71
2017-12-25T11:03:12.719Z,83.28
2017-12-25T11:04:22.829Z,83.18
2017-12-25T11:05:33.742Z,83
2017-12-25T11:06:43.857Z,82.9
2017-12-25T11:07:53.654Z,83.09
2017-12-25T11:09:03.463Z,83.18
2017-12-25T11:10:13.245Z,82.71
2017-12-25T11:11:23.303Z,82.52
2017-12-25T11:12:32.847Z,82.52
2017-12-25T11:13:42.429Z,82.42
2017-12-25T11:14:52.247Z,82.42
2017-12-25T11:16:02.360Z,82.42
2017-12-25T11:17:12.429Z,82.52
2017-12-25T11:18:22.234Z,82.42
2017-12-25T11:19:32.071Z,82.32
2017-12-25T11:20:42.131Z,82.52
2017-12-25T11:21:51.988Z,82.32
2017-12-25T11:23:01.531Z,82.37
2017-12-25T11:24:12.486Z,82.37
2017-12-25T11:25:22.297Z,82.65
2017-12-25T11:26:32.107Z,82.46
2017-12-25T11:27:42.235Z,82.75
2017-12-25T11:28:52.296Z,82.56
2017-12-25T11:30:02.361Z,82.56
2017-12-25T11:31:12.152Z,82.28
2017-12-25T11:32:21.426Z,82.75
2017-12-25T11:33:31.225Z,82.75
2017-12-25T11:34:41.408Z,82.65
2017-12-25T11:35:51.488Z,82.56
2017-12-25T11:37:00.806Z,82.56
2017-12-25T11:38:10.884Z,82.56
2017-12-25T11:39:20.954Z,82.56
2017-12-25T11:40:31.013Z,82.56
2017-12-25T11:41:40.799Z,82.37
2017-12-25T11:42:50.857Z,82.56
2017-12-25T11:44:00.966Z,82.46
2017-12-25T11:45:11.083Z,82.46
2017-12-25T11:46:20.761Z,82.46
2017-12-25T11:47:30.576Z,82.46
2017-12-25T11:48:40.129Z,82.37
2017-12-25T11:49:49.663Z,82.28
2017-12-25T11:50:59.468Z,82.37
2017-12-25T11:52:09.271Z,82.46
2017-12-25T11:53:18.867Z,82.28
2017-12-25T11:54:28.725Z,82.37
2017-12-25T11:55:38.525Z,82.75
2017-12-25T11:56:48.319Z,82.56
2017-12-25T11:57:58.113Z,83.13
2017-12-25T11:59:07.660Z,82.65
2017-12-25T12:00:17.465Z,82.94
2017-12-25T12:01:27.516Z,83.13
2017-12-25T12:02:37.584Z,83.13
2017-12-25T12:03:47.377Z,82.94
2017-12-25T12:04:57.183Z,82.94
2017-12-25T12:06:06.724Z,82.94
2017-12-25T12:07:16.545Z,82.94
2017-12-25T12:08:26.348Z,82.79
2017-12-25T12:09:36.149Z,82.98
2017-12-25T12:10:46.192Z,83.04
2017-12-25T12:11:56.255Z,82.98
2017-12-25T12:13:06.051Z,83.61
2017-12-25T12:14:15.585Z,82.94
2017-12-25T12:15:25.135Z,82.65
2017-12-25T12:16:35.039Z,82.94
2017-12-25T12:17:44.341Z,82.94
2017-12-25T12:18:54.138Z,83.04
2017-12-25T12:20:03.684Z,82.94
2017-12-25T12:21:13.232Z,82.94
2017-12-25T12:22:23.029Z,82.94
2017-12-25T12:23:32.567Z,82.75
2017-12-25T12:24:42.693Z,82.94
2017-12-25T12:25:52.494Z,82.94
2017-12-25T12:27:02.286Z,82.94
2017-12-25T12:28:11.837Z,82.94
2017-12-25T12:29:21.374Z,83.13
2017-12-25T12:30:31.521Z,83.04
2017-12-25T12:31:41.365Z,82.84
2017-12-25T12:32:51.498Z,82.94
2017-12-25T12:34:01.255Z,83.13
2017-12-25T12:35:11.412Z,82.98
2017-12-25T12:36:21.256Z,82.98
2017-12-25T12:37:31.352Z,82.79
2017-12-25T12:38:41.193Z,82.79
2017-12-25T12:39:51.104Z,83.17
2017-12-25T12:41:01.178Z,82.89
2017-12-25T12:42:11.308Z,82.79
2017-12-25T12:43:22.722Z,83.65
2017-12-25T12:44:32.708Z,83.75
2017-12-25T12:45:42.987Z,83.46
2017-12-25T12:46:53.080Z,83.56
2017-12-25T12:48:15.176Z,83.46
2017-12-25T12:49:24.469Z,83.51
2017-12-25T12:50:34.293Z,83.84
2017-12-25T12:51:43.837Z,83.8
2017-12-25T12:52:53.420Z,83.84
2017-12-25T12:54:03.508Z,83.84
2017-12-25T12:55:13.342Z,83.75
2017-12-25T12:56:23.297Z,83.75
2017-12-25T12:57:32.862Z,83.65
2017-12-25T12:58:43.233Z,83.75
2017-12-25T12:59:52.639Z,83.75
2017-12-25T13:01:02.753Z,83.75
2017-12-25T13:02:12.321Z,83.56
2017-12-25T13:03:22.407Z,83.75
2017-12-25T13:04:32.525Z,84.09
2017-12-25T13:05:42.143Z,83.8
2017-12-25T13:06:52.239Z,83.8
2017-12-25T13:08:02.069Z,83.51
2017-12-25T13:09:11.954Z,83.61
2017-12-25T13:10:22.088Z,83.28
2017-12-25T13:11:31.722Z,83.76
2017-12-25T13:12:41.594Z,83.76
2017-12-25T13:13:51.465Z,83.67
2017-12-25T13:15:01.324Z,83.95
2017-12-25T13:16:11.165Z,83.67
2017-12-25T13:17:20.771Z,83.86
2017-12-25T13:18:29.835Z,83.86
2017-12-25T13:19:39.698Z,83.72
2017-12-25T13:20:49.846Z,84.1
2017-12-25T13:21:59.921Z,84
2017-12-25T13:23:09.456Z,83.81
2017-12-25T13:24:19.774Z,83.72
2017-12-25T13:25:29.327Z,83.81
2017-12-25T13:26:39.795Z,84.29
2017-12-25T13:27:49.644Z,83.91
2017-12-25T13:28:59.242Z,84.48
2017-12-25T13:30:09.068Z,83.72
2017-12-25T13:31:18.888Z,83.81
2017-12-25T13:32:28.446Z,83.91
2017-12-25T13:33:38.051Z,84.1
2017-12-25T13:34:47.883Z,84.1
2017-12-25T13:35:58.114Z,84.29
2017-12-25T13:37:08.895Z,84.29
2017-12-25T13:38:18.979Z,84.2
2017-12-25T13:39:28.833Z,84.44
2017-12-25T13:40:39.713Z,84.48
2017-12-25T13:41:49.858Z,84.1
2017-12-25T13:42:59.421Z,84.29
2017-12-25T13:44:09.236Z,84.34
2017-12-25T13:45:19.331Z,84.39
2017-12-25T13:46:29.229Z,84.58
2017-12-25T13:47:39.318Z,84.44
2017-12-25T13:48:49.402Z,84.44
2017-12-25T13:49:59.272Z,84.25
2017-12-25T13:51:09.148Z,84.06
2017-12-25T13:52:18.760Z,84.06
2017-12-25T13:53:28.588Z,84.34
2017-12-25T13:54:38.679Z,84.06
2017-12-25T13:55:48.813Z,84.25
2017-12-25T13:56:58.645Z,83.87
2017-12-25T13:58:08.714Z,83.77
2017-12-25T13:59:18.546Z,84.06
2017-12-25T14:00:28.361Z,84.16
2017-12-25T14:01:38.452Z,83.92
2017-12-25T14:02:48.281Z,84.53
2017-12-25T14:03:58.850Z,84.49
2017-12-25T14:05:08.394Z,84.72
2017-12-25T14:06:17.942Z,84.49
2017-12-25T14:07:28.025Z,84.78
2017-12-25T14:08:37.875Z,84.59
2017-12-25T14:09:47.737Z,84.3
2017-12-25T14:10:57.852Z,84.4
2017-12-25T14:12:07.989Z,84.97
2017-12-25T14:13:17.593Z,84.78
2017-12-25T14:14:27.659Z,84.78
2017-12-25T14:15:37.530Z,84.88
2017-12-25T14:16:47.634Z,84.92
2017-12-25T14:17:57.476Z,84.55
2017-12-25T14:19:07.574Z,84.92
2017-12-25T14:20:17.362Z,85.02
2017-12-25T14:21:27.472Z,85.12
2017-12-25T14:22:37.275Z,85.21
2017-12-25T14:23:46.830Z,85.12
2017-12-25T14:24:56.393Z,85.41
2017-12-25T14:26:06.413Z,85.41
2017-12-25T14:27:16.216Z,84.92
2017-12-25T14:28:26.013Z,84.98
2017-12-25T14:29:36.083Z,85.08
2017-12-25T14:30:46.355Z,85.08
2017-12-25T14:31:56.410Z,85.08
2017-12-25T14:33:06.250Z,85.08
2017-12-25T14:34:16.340Z,85.08
2017-12-25T14:35:27.386Z,85.08
2017-12-25T14:36:37.455Z,84.94
2017-12-25T14:37:46.996Z,84.88
2017-12-25T14:38:57.104Z,85.17
2017-12-25T14:40:07.167Z,85.03
2017-12-25T14:41:18.032Z,85.17
2017-12-25T14:42:28.101Z,84.75
2017-12-25T14:43:38.827Z,85.22
2017-12-25T14:44:48.674Z,85.03
2017-12-25T14:45:58.734Z,84.75
2017-12-25T14:47:08.805Z,84.84
2017-12-25T14:48:18.636Z,84.84
2017-12-25T14:49:28.991Z,84.94
2017-12-25T14:50:38.858Z,84.94
2017-12-25T14:51:48.660Z,85.13
2017-12-25T14:52:58.757Z,85.03
2017-12-25T14:54:08.821Z,85.03
2017-12-25T14:55:18.893Z,85.03
2017-12-25T14:56:29.032Z,85.03
2017-12-25T14:57:39.119Z,85.03
2017-12-25T14:58:49.203Z,84.89
2017-12-25T14:59:59.269Z,84.89
2017-12-25T15:01:09.100Z,85.18
2017-12-25T15:02:19.205Z,85.08
2017-12-25T15:03:29.309Z,85.18
2017-12-25T15:04:39.122Z,84.8
2017-12-25T15:05:49.180Z,85.28
2017-12-25T15:06:59.263Z,85.08
2017-12-25T15:08:09.138Z,85.08
2017-12-25T15:09:19.183Z,85.08
2017-12-25T15:10:29.253Z,85.28
2017-12-25T15:11:39.321Z,85.18
2017-12-25T15:12:49.157Z,85.08
2017-12-25T15:13:58.976Z,84.99
2017-12-25T15:15:09.054Z,84.99
2017-12-25T15:16:19.143Z,85.14
2017-12-25T15:17:29.220Z,85.08
2017-12-25T15:18:39.041Z,85.24
2017-12-25T15:19:49.166Z,85.24
2017-12-25T15:20:59.247Z,85.33
2017-12-25T15:22:10.012Z,85.24
2017-12-25T15:23:20.095Z,84.76
2017-12-25T15:24:29.887Z,84.85
2017-12-25T15:25:39.997Z,84.76
2017-12-25T15:26:50.084Z,85.04
2017-12-25T15:28:00.182Z,85.04
2017-12-25T15:29:10.290Z,85.04
2017-12-25T15:30:20.103Z,84.85
2017-12-25T15:31:30.180Z,84.95
2017-12-25T15:32:40.268Z,84.66
2017-12-25T15:33:50.334Z,84.66